createdAt,value
2022-07-28T00:01:34.576Z,58.52
2022-07-28T00:04:02.047Z,58.25
2022-07-28T00:06:29.282Z,58.54
2022-07-28T00:08:56.510Z,58.62
2022-07-28T00:11:24.195Z,59.25
2022-07-28T00:13:51.457Z,59.62
2022-07-28T00:16:18.856Z,59.62
2022-07-28T00:18:46.180Z,59.94
2022-07-28T00:21:13.541Z,59.90
2022-07-28T00:23:40.849Z,59.61
2022-07-28T00:26:09.638Z,59.53
2022-07-28T00:28:38.117Z,60.17
2022-07-28T00:31:09.478Z,60.13
2022-07-28T00:33:39.878Z,60.37
2022-07-28T00:36:11.606Z,60.32
2022-07-28T00:38:40.783Z,60.54
2022-07-28T00:41:11.280Z,60.64
2022-07-28T00:43:48.676Z,60.53
2022-07-28T00:46:19.085Z,60.65
2022-07-28T00:48:51.384Z,60.88
2022-07-28T00:51:26.717Z,60.66
2022-07-28T00:53:55.687Z,60.48
2022-07-28T00:56:23.759Z,60.56
2022-07-28T00:58:51.286Z,60.43
2022-07-28T01:01:20.807Z,60.30
2022-07-28T01:03:59.176Z,60.48
2022-07-28T01:06:49.855Z,60.41
2022-07-28T01:09:46.167Z,60.34
2022-07-28T01:12:51.051Z,60.85
2022-07-28T01:15:48.982Z,60.71
2022-07-28T01:18:22.894Z,60.88
2022-07-28T01:21:10.399Z,60.70
2022-07-28T01:24:08.064Z,60.67
2022-07-28T01:27:09.176Z,60.83
2022-07-28T01:30:04.694Z,61.13
2022-07-28T01:32:50.181Z,60.91
2022-07-28T01:35:27.016Z,60.91
2022-07-28T01:38:01.201Z,60.65
2022-07-28T01:40:35.534Z,60.63
2022-07-28T01:43:09.444Z,60.68
2022-07-28T01:45:43.273Z,60.90
2022-07-28T01:48:12.246Z,60.80
2022-07-28T01:50:42.109Z,61.03
2022-07-28T01:53:13.629Z,60.94
2022-07-28T01:55:44.327Z,61.14
2022-07-28T01:58:17.111Z,60.53
2022-07-28T02:00:48.710Z,60.77
2022-07-28T02:03:20.637Z,60.57
2022-07-28T02:05:52.644Z,60.54
2022-07-28T02:08:23.451Z,60.76
2022-07-28T02:10:55.999Z,60.84
2022-07-28T02:13:23.184Z,60.56
2022-07-28T02:15:50.677Z,60.64
2022-07-28T02:18:18.061Z,61.02
2022-07-28T02:20:45.788Z,61.02
2022-07-28T02:23:14.631Z,61.01
2022-07-28T02:25:42.593Z,61.22
2022-07-28T02:28:13.328Z,61.02
2022-07-28T02:30:58.306Z,61.09
2022-07-28T02:33:58.895Z,60.92
2022-07-28T02:36:29.202Z,60.97
2022-07-28T02:39:08.509Z,60.96
2022-07-28T02:41:45.820Z,61.35
2022-07-28T02:44:22.310Z,61.41
2022-07-28T02:46:55.120Z,61.00
2022-07-28T02:49:32.461Z,60.54
2022-07-28T02:52:03.598Z,60.72
2022-07-28T02:54:32.358Z,60.61
2022-07-28T02:57:01.373Z,60.68
2022-07-28T02:59:29.789Z,60.46
2022-07-28T03:01:58.348Z,60.51
2022-07-28T03:04:26.498Z,60.63
2022-07-28T03:06:53.729Z,60.57
2022-07-28T03:09:20.862Z,60.68
2022-07-28T03:11:54.400Z,61.03
2022-07-28T03:14:21.638Z,61.07
2022-07-28T03:16:53.591Z,60.82
2022-07-28T03:19:22.585Z,60.60
2022-07-28T03:21:49.722Z,60.67
2022-07-28T03:24:19.735Z,60.73
2022-07-28T03:26:59.348Z,61.15
2022-07-28T03:29:31.244Z,61.27
2022-07-28T03:32:00.657Z,61.46
2022-07-28T03:34:29.435Z,61.61
2022-07-28T03:37:06.961Z,61.57
2022-07-28T03:39:42.717Z,61.71
2022-07-28T03:42:11.865Z,62.11
2022-07-28T03:44:39.734Z,61.89
2022-07-28T03:47:07.893Z,62.12
2022-07-28T03:49:35.312Z,61.86
2022-07-28T03:52:02.516Z,61.89
2022-07-28T03:54:29.850Z,61.55
2022-07-28T03:56:57.155Z,61.29
2022-07-28T03:59:24.352Z,61.48
2022-07-28T04:01:54.999Z,61.29
2022-07-28T04:04:23.595Z,61.38
2022-07-28T04:06:51.125Z,61.53
2022-07-28T04:09:21.881Z,61.25
2022-07-28T04:11:49.159Z,61.76
2022-07-28T04:14:17.134Z,61.69
2022-07-28T04:16:44.941Z,61.74
2022-07-28T04:19:13.401Z,61.64
2022-07-28T04:21:40.582Z,61.58
2022-07-28T04:24:10.591Z,61.37
2022-07-28T04:26:38.772Z,61.52
2022-07-28T04:29:09.130Z,62.11
2022-07-28T04:31:36.372Z,61.78
2022-07-28T04:34:03.626Z,61.63
2022-07-28T04:36:30.817Z,61.73
2022-07-28T04:38:58.041Z,61.80
2022-07-28T04:41:26.355Z,61.81
2022-07-28T04:43:53.559Z,61.86
2022-07-28T04:46:20.875Z,62.03
2022-07-28T04:48:48.221Z,62.08
2022-07-28T04:51:15.482Z,61.93
2022-07-28T04:53:43.610Z,61.63
2022-07-28T04:56:10.797Z,61.64
2022-07-28T04:58:37.975Z,61.67
2022-07-28T05:01:05.664Z,61.05
2022-07-28T05:03:36.152Z,60.80
2022-07-28T05:06:03.747Z,60.86
2022-07-28T05:08:30.901Z,61.50
2022-07-28T05:10:58.074Z,61.41
2022-07-28T05:13:30.347Z,61.67
2022-07-28T05:16:00.601Z,61.34
2022-07-28T05:18:27.883Z,61.74
2022-07-28T05:20:55.004Z,61.18
2022-07-28T05:23:22.206Z,61.65
2022-07-28T05:25:49.648Z,61.01
2022-07-28T05:28:16.892Z,60.67
2022-07-28T05:30:44.666Z,60.86
2022-07-28T05:33:12.045Z,60.87
2022-07-28T05:35:39.256Z,60.49
2022-07-28T05:38:10.754Z,60.57
2022-07-28T05:40:38.483Z,60.58
2022-07-28T05:43:05.709Z,60.70
2022-07-28T05:45:33.019Z,60.24
2022-07-28T05:48:00.217Z,60.52
2022-07-28T05:50:27.362Z,60.58
2022-07-28T05:52:54.648Z,60.02
2022-07-28T05:55:22.075Z,59.91
2022-07-28T05:57:49.306Z,60.41
2022-07-28T06:00:21.191Z,60.73
2022-07-28T06:02:50.173Z,60.51
2022-07-28T06:05:21.475Z,60.44
2022-07-28T06:07:51.370Z,60.14
2022-07-28T06:10:22.714Z,59.94
2022-07-28T06:12:55.725Z,59.87
2022-07-28T06:15:25.881Z,59.91
2022-07-28T06:17:55.349Z,59.69
2022-07-28T06:20:24.927Z,59.96
2022-07-28T06:22:59.044Z,60.27
2022-07-28T06:25:29.813Z,59.80
2022-07-28T06:28:06.523Z,59.48
2022-07-28T06:30:33.705Z,59.84
2022-07-28T06:33:02.898Z,59.77
2022-07-28T06:35:30.144Z,59.59
2022-07-28T06:37:57.400Z,59.48
2022-07-28T06:40:25.257Z,59.10
2022-07-28T06:42:52.631Z,58.75
2022-07-28T06:45:21.535Z,58.39
2022-07-28T06:47:53.526Z,58.87
2022-07-28T06:50:25.765Z,58.22
2022-07-28T06:52:58.965Z,58.05
2022-07-28T06:55:34.552Z,58.33
2022-07-28T06:58:04.756Z,58.00
2022-07-28T07:00:32.405Z,57.60
2022-07-28T07:03:00.829Z,58.04
2022-07-28T07:05:29.231Z,57.45
2022-07-28T07:07:56.439Z,57.00
2022-07-28T07:10:24.013Z,56.28
2022-07-28T07:12:51.349Z,56.27
2022-07-28T07:15:18.543Z,55.97
2022-07-28T07:17:46.157Z,56.21
2022-07-28T07:20:13.552Z,56.37
2022-07-28T07:22:46.397Z,55.91
2022-07-28T07:25:17.987Z,55.51
2022-07-28T07:27:46.399Z,55.19
2022-07-28T07:30:15.893Z,54.74
2022-07-28T07:32:43.979Z,55.22
2022-07-28T07:35:11.847Z,55.42
2022-07-28T07:37:39.499Z,54.67
2022-07-28T07:40:08.279Z,54.92
2022-07-28T07:42:35.738Z,54.53
2022-07-28T07:45:03.704Z,54.90
2022-07-28T07:47:31.027Z,54.96
2022-07-28T07:49:58.253Z,55.24
2022-07-28T07:52:25.484Z,55.22
2022-07-28T07:54:52.675Z,55.16
2022-07-28T07:57:19.883Z,55.38
2022-07-28T07:59:47.060Z,54.92
2022-07-28T08:02:14.510Z,54.84
2022-07-28T08:04:41.788Z,54.26
2022-07-28T08:07:10.009Z,53.97
2022-07-28T08:09:37.224Z,53.32
2022-07-28T08:12:05.128Z,53.21
2022-07-28T08:14:32.375Z,53.86
2022-07-28T08:16:59.780Z,54.59
2022-07-28T08:19:26.996Z,54.45
2022-07-28T08:21:54.488Z,53.70
2022-07-28T08:24:27.803Z,53.58
2022-07-28T08:27:02.929Z,52.96
2022-07-28T08:29:30.526Z,52.41
2022-07-28T08:31:57.985Z,52.48
2022-07-28T08:34:31.419Z,52.31
2022-07-28T08:37:04.443Z,53.25
2022-07-28T08:39:33.682Z,51.95
2022-07-28T08:42:20.480Z,52.39
2022-07-28T08:45:03.784Z,53.01
2022-07-28T08:47:45.667Z,53.29
2022-07-28T08:50:13.873Z,52.93
2022-07-28T08:52:45.351Z,52.63
2022-07-28T08:55:19.456Z,52.54
2022-07-28T08:57:47.730Z,52.65
2022-07-28T09:00:15.314Z,52.84
2022-07-28T09:02:44.852Z,52.78
2022-07-28T09:05:12.577Z,52.74
2022-07-28T09:07:41.684Z,52.98
2022-07-28T09:10:11.593Z,52.12
2022-07-28T09:12:39.770Z,51.58
2022-07-28T09:15:09.529Z,51.51
2022-07-28T09:17:37.385Z,51.59
2022-07-28T09:20:10.799Z,52.10
2022-07-28T09:23:03.966Z,51.10
2022-07-28T09:25:32.811Z,50.94
2022-07-28T09:28:10.946Z,51.58
2022-07-28T09:30:48.302Z,51.58
2022-07-28T09:33:42.340Z,51.23
2022-07-28T09:36:15.716Z,50.17
2022-07-28T09:38:43.134Z,48.82
2022-07-28T09:41:11.477Z,46.15
2022-07-28T09:43:45.026Z,45.71
2022-07-28T09:46:15.595Z,45.68
2022-07-28T09:48:55.811Z,46.34
2022-07-28T09:51:33.057Z,46.94
2022-07-28T09:54:16.905Z,46.23
2022-07-28T09:56:46.153Z,44.48
2022-07-28T09:59:14.987Z,43.99
2022-07-28T10:02:01.918Z,43.80
2022-07-28T10:04:39.840Z,42.76
2022-07-28T10:07:14.300Z,43.44
2022-07-28T10:09:42.233Z,45.84
2022-07-28T10:12:17.166Z,46.86
2022-07-28T10:14:44.804Z,47.27
2022-07-28T10:17:31.662Z,47.60
2022-07-28T10:20:01.869Z,47.52
2022-07-28T10:22:43.291Z,46.86
2022-07-28T10:25:11.802Z,45.12
2022-07-28T10:27:42.957Z,44.80
2022-07-28T10:30:12.255Z,44.38
2022-07-28T10:32:45.739Z,43.77
2022-07-28T10:35:16.226Z,44.86
2022-07-28T10:38:07.804Z,44.47
2022-07-28T10:40:42.108Z,43.83
2022-07-28T10:43:09.536Z,44.20
2022-07-28T10:46:03.247Z,45.83
2022-07-28T10:48:27.169Z,45.31
2022-07-28T10:50:56.796Z,44.86
2022-07-28T10:53:56.902Z,45.29
2022-07-28T10:56:49.968Z,43.91
2022-07-28T10:59:58.814Z,44.27
2022-07-28T11:02:46.135Z,44.11
2022-07-28T11:05:34.081Z,44.28
2022-07-28T11:08:27.713Z,44.92
2022-07-28T11:11:05.564Z,44.97
2022-07-28T11:13:37.061Z,46.07
2022-07-28T11:16:14.594Z,45.71
2022-07-28T11:19:40.515Z,46.29
2022-07-28T11:22:15.213Z,46.18
2022-07-28T11:24:57.939Z,44.03
2022-07-28T11:27:41.064Z,43.40
2022-07-28T11:30:18.670Z,43.02
2022-07-28T11:33:07.632Z,44.75
2022-07-28T11:35:41.026Z,41.81
2022-07-28T11:38:14.502Z,42.02
2022-07-28T11:40:53.794Z,41.61
2022-07-28T11:43:35.777Z,40.94
2022-07-28T11:46:10.237Z,40.25
2022-07-28T11:48:42.038Z,40.90
2022-07-28T11:51:11.658Z,40.44
2022-07-28T11:53:53.618Z,41.17
2022-07-28T11:56:29.437Z,42.66
2022-07-28T11:59:06.298Z,43.34
2022-07-28T12:01:36.867Z,42.54
2022-07-28T12:04:12.307Z,42.07
2022-07-28T12:06:42.401Z,41.53
2022-07-28T12:09:11.502Z,41.13
2022-07-28T12:11:41.227Z,40.85
2022-07-28T12:14:11.087Z,40.33
2022-07-28T12:16:43.156Z,41.19
2022-07-28T12:19:14.626Z,41.28
2022-07-28T12:21:49.306Z,41.36
2022-07-28T12:24:30.609Z,40.59
2022-07-28T12:27:00.260Z,40.73
2022-07-28T12:29:33.536Z,41.41
2022-07-28T12:32:08.092Z,40.39
2022-07-28T12:34:36.894Z,40.84
2022-07-28T12:37:07.024Z,40.57
2022-07-28T12:39:34.932Z,40.02
2022-07-28T12:42:05.859Z,40.91
2022-07-28T12:44:45.758Z,39.81
2022-07-28T12:47:15.541Z,39.25
2022-07-28T12:49:45.041Z,40.34
2022-07-28T12:52:24.389Z,38.92
2022-07-28T12:54:55.743Z,40.01
2022-07-28T12:57:49.148Z,39.66
2022-07-28T13:00:20.207Z,39.59
2022-07-28T13:02:49.450Z,39.81
2022-07-28T13:05:43.030Z,41.35
2022-07-28T13:08:10.414Z,41.47
2022-07-28T13:10:47.320Z,42.18
2022-07-28T13:13:15.850Z,45.45
2022-07-28T13:15:43.345Z,46.86
2022-07-28T13:18:11.531Z,47.21
2022-07-28T13:20:51.864Z,47.95
2022-07-28T13:23:19.012Z,48.24
2022-07-28T13:25:46.316Z,48.36
2022-07-28T13:28:25.390Z,48.79
2022-07-28T13:30:53.269Z,49.43
2022-07-28T13:33:20.866Z,49.48
2022-07-28T13:35:49.192Z,49.35
2022-07-28T13:38:17.539Z,49.89
2022-07-28T13:40:45.866Z,49.93
2022-07-28T13:43:13.333Z,49.93
2022-07-28T13:45:41.051Z,49.92
2022-07-28T13:48:10.758Z,50.15
2022-07-28T13:50:38.006Z,50.52
2022-07-28T13:53:05.153Z,50.53
2022-07-28T13:55:33.570Z,51.12
2022-07-28T13:58:03.333Z,51.13
2022-07-28T14:00:34.095Z,51.93
2022-07-28T14:03:01.383Z,54.11
2022-07-28T14:05:32.139Z,55.70
2022-07-28T14:08:00.060Z,57.36
2022-07-28T14:10:27.685Z,57.85
2022-07-28T14:12:55.055Z,57.17
2022-07-28T14:15:22.368Z,57.17
2022-07-28T14:17:49.563Z,57.85
2022-07-28T14:20:17.110Z,58.06
2022-07-28T14:22:46.329Z,57.60
2022-07-28T14:25:20.983Z,56.58
2022-07-28T14:27:51.492Z,56.47
2022-07-28T14:30:21.221Z,57.05
2022-07-28T14:32:49.226Z,58.03
2022-07-28T14:35:16.749Z,57.31
2022-07-28T14:38:28.493Z,57.81
2022-07-28T14:40:31.826Z,55.58
2022-07-28T14:43:00.098Z,55.93
2022-07-28T14:45:29.572Z,55.18
2022-07-28T14:47:58.175Z,54.18
2022-07-28T14:50:25.918Z,54.46
2022-07-28T14:52:53.440Z,54.93
2022-07-28T14:55:21.219Z,53.26
2022-07-28T14:57:54.709Z,53.01
2022-07-28T15:00:25.135Z,54.58
2022-07-28T15:02:56.490Z,53.85
2022-07-28T15:05:23.833Z,54.03
2022-07-28T15:07:51.484Z,53.88
2022-07-28T15:10:20.277Z,54.14
2022-07-28T15:12:47.577Z,54.17
2022-07-28T15:15:23.849Z,52.98
2022-07-28T15:18:09.847Z,53.22
2022-07-28T15:20:38.805Z,54.67
2022-07-28T15:23:07.099Z,54.02
2022-07-28T15:29:43.832Z,52.89
2022-07-28T15:32:13.114Z,53.27
2022-07-28T15:34:43.528Z,54.58
2022-07-28T15:37:10.768Z,54.63
2022-07-28T15:39:40.673Z,53.93
2022-07-28T15:42:11.979Z,51.10
2022-07-28T15:44:39.123Z,50.03
2022-07-28T15:47:06.754Z,49.98
2022-07-28T15:49:36.589Z,47.61
2022-07-28T15:52:03.870Z,47.63
2022-07-28T15:54:31.250Z,48.75
2022-07-28T15:56:58.444Z,49.87
2022-07-28T15:59:25.742Z,51.01
2022-07-28T16:01:53.349Z,50.67
2022-07-28T16:04:20.597Z,50.18
2022-07-28T16:06:47.864Z,49.51
2022-07-28T16:09:15.779Z,49.41
2022-07-28T16:11:43.441Z,49.18
2022-07-28T16:14:11.029Z,49.65
2022-07-28T16:16:38.835Z,49.78
2022-07-28T16:19:20.143Z,50.32
2022-07-28T16:21:56.035Z,50.58
2022-07-28T16:24:23.279Z,50.94
2022-07-28T16:26:50.621Z,50.85
2022-07-28T16:29:17.887Z,50.88
2022-07-28T16:31:45.510Z,51.37
2022-07-28T16:34:13.373Z,51.14
2022-07-28T16:36:40.816Z,50.99
2022-07-28T16:39:08.755Z,50.19
2022-07-28T16:41:47.502Z,50.21
2022-07-28T16:44:16.110Z,49.78
2022-07-28T16:46:43.703Z,50.14
2022-07-28T16:49:11.057Z,50.01
2022-07-28T16:51:38.233Z,50.29
2022-07-28T16:54:05.495Z,50.60
2022-07-28T16:56:32.724Z,50.86
2022-07-28T16:58:59.935Z,51.29
2022-07-28T17:01:27.341Z,51.72
2022-07-28T17:03:54.727Z,51.80
2022-07-28T17:06:22.016Z,51.98
2022-07-28T17:08:49.182Z,52.04
2022-07-28T17:11:17.064Z,52.62
2022-07-28T17:13:45.509Z,53.14
2022-07-28T17:16:13.732Z,53.20
2022-07-28T17:18:41.139Z,52.99
2022-07-28T17:21:08.445Z,53.00
2022-07-28T17:23:36.727Z,52.92
2022-07-28T17:27:04.937Z,53.11
2022-07-28T17:28:52.757Z,53.77
2022-07-28T17:31:20.062Z,53.43
2022-07-28T17:33:47.443Z,53.87
2022-07-28T17:36:14.802Z,54.75
2022-07-28T17:38:42.131Z,54.91
2022-07-28T17:41:09.696Z,55.65
2022-07-28T17:43:38.964Z,56.00
2022-07-28T17:46:10.413Z,56.86
2022-07-28T17:48:38.641Z,56.73
2022-07-28T17:51:08.099Z,56.58
2022-07-28T17:53:39.044Z,57.30
2022-07-28T17:56:09.038Z,56.83
2022-07-28T17:58:37.602Z,56.60
2022-07-28T18:01:10.223Z,57.26
2022-07-28T18:03:59.835Z,57.27
2022-07-28T18:06:35.567Z,58.03
2022-07-28T18:09:08.239Z,58.34
2022-07-28T18:11:57.165Z,58.23
2022-07-28T18:14:30.322Z,58.22
2022-07-28T18:16:59.277Z,58.19
2022-07-28T18:19:28.357Z,58.48
2022-07-28T18:21:56.370Z,58.27
2022-07-28T18:24:23.628Z,58.19
2022-07-28T18:26:51.725Z,58.31
2022-07-28T18:29:20.345Z,58.43
2022-07-28T18:31:52.737Z,58.37
2022-07-28T18:34:23.308Z,58.31
2022-07-28T18:36:53.654Z,58.58
2022-07-28T18:39:21.549Z,57.50
2022-07-28T18:41:48.775Z,57.50
2022-07-28T18:44:17.491Z,57.72
2022-07-28T18:46:45.737Z,57.76
2022-07-28T18:49:13.531Z,57.62
2022-07-28T18:51:45.538Z,57.62
2022-07-28T18:54:24.758Z,57.84
2022-07-28T18:56:56.128Z,58.06
2022-07-28T18:59:23.865Z,58.64
2022-07-28T19:01:51.342Z,58.90
2022-07-28T19:04:19.319Z,58.65
2022-07-28T19:06:46.749Z,58.66
2022-07-28T19:09:14.335Z,58.74
2022-07-28T19:11:45.965Z,58.97
2022-07-28T19:14:16.172Z,58.83
2022-07-28T19:16:44.127Z,58.55
2022-07-28T19:19:11.461Z,58.61
2022-07-28T19:21:38.657Z,59.01
2022-07-28T19:24:13.425Z,59.47
2022-07-28T19:26:42.599Z,60.25
2022-07-28T19:29:09.878Z,60.15
2022-07-28T19:31:37.059Z,60.33
2022-07-28T19:34:04.376Z,60.24
2022-07-28T19:36:31.568Z,60.44
2022-07-28T19:38:58.928Z,60.57
2022-07-28T19:41:26.097Z,60.44
2022-07-28T19:43:53.329Z,60.17
2022-07-28T19:46:20.675Z,60.17
2022-07-28T19:48:47.877Z,60.46
2022-07-28T19:51:15.083Z,60.21
2022-07-28T19:53:42.350Z,60.56
2022-07-28T19:56:11.909Z,60.14
2022-07-28T19:58:39.131Z,60.29
2022-07-28T20:01:06.772Z,60.29
2022-07-28T20:04:02.613Z,60.05
2022-07-28T20:06:24.674Z,59.86
2022-07-28T20:08:53.854Z,59.79
2022-07-28T20:11:21.128Z,59.80
2022-07-28T20:13:48.329Z,59.78
2022-07-28T20:16:16.283Z,59.42
2022-07-28T20:18:43.562Z,59.34
2022-07-28T20:21:10.703Z,59.29
2022-07-28T20:23:38.144Z,59.18
2022-07-28T20:26:05.346Z,59.16
2022-07-28T20:28:32.591Z,59.05
2022-07-28T20:31:00.466Z,59.13
2022-07-28T20:33:27.749Z,58.78
2022-07-28T20:35:54.956Z,59.21
2022-07-28T20:38:22.253Z,58.92
2022-07-28T20:40:50.887Z,59.14
2022-07-28T20:43:18.094Z,59.09
2022-07-28T20:45:46.244Z,58.76
2022-07-28T20:48:14.555Z,58.69
2022-07-28T20:50:42.839Z,59.18
2022-07-28T20:53:10.572Z,59.54
2022-07-28T20:55:37.915Z,59.64
2022-07-28T20:58:05.855Z,59.62
2022-07-28T21:00:33.607Z,60.09
2022-07-28T21:03:00.829Z,59.66
2022-07-28T21:05:34.704Z,59.97
2022-07-28T21:08:09.141Z,59.80
2022-07-28T21:10:43.531Z,59.77
2022-07-28T21:13:10.929Z,60.17
2022-07-28T21:15:38.236Z,60.11
2022-07-28T21:18:05.580Z,60.33
2022-07-28T21:20:32.821Z,60.27
2022-07-28T21:23:00.035Z,60.55
2022-07-28T21:25:29.800Z,60.47
2022-07-28T21:27:57.008Z,60.60
2022-07-28T21:30:27.687Z,60.49
2022-07-28T21:32:55.633Z,60.79
2022-07-28T21:35:22.942Z,60.65
2022-07-28T21:37:50.309Z,60.44
2022-07-28T21:40:17.469Z,60.78
2022-07-28T21:42:46.610Z,60.80
2022-07-28T21:45:13.877Z,60.84
2022-07-28T21:47:41.488Z,60.74
2022-07-28T21:50:09.509Z,61.17
2022-07-28T21:52:38.008Z,61.46
2022-07-28T21:55:07.942Z,61.29
2022-07-28T21:57:36.253Z,61.18
2022-07-28T22:00:09.335Z,61.07
2022-07-28T22:02:36.572Z,61.16
2022-07-28T22:05:05.347Z,61.26
2022-07-28T22:07:32.600Z,61.40
2022-07-28T22:09:59.713Z,61.34
2022-07-28T22:12:26.925Z,61.41
2022-07-28T22:14:54.104Z,61.52
2022-07-28T22:17:21.360Z,61.78
2022-07-28T22:19:48.617Z,62.02
2022-07-28T22:22:15.861Z,61.72
2022-07-28T22:24:43.017Z,61.88
2022-07-28T22:27:10.267Z,61.96
2022-07-28T22:29:37.551Z,62.23
2022-07-28T22:32:05.262Z,62.13
2022-07-28T22:34:32.454Z,62.14
2022-07-28T22:36:59.855Z,62.66
2022-07-28T22:39:27.107Z,62.46
2022-07-28T22:41:54.259Z,63.17
2022-07-28T22:44:21.429Z,63.20
2022-07-28T22:46:48.657Z,63.32
2022-07-28T22:49:16.163Z,62.96
2022-07-28T22:51:46.461Z,63.44
2022-07-28T22:54:16.721Z,63.64
2022-07-28T22:56:44.690Z,63.89
2022-07-28T22:59:12.351Z,64.62
2022-07-28T23:01:43.034Z,64.10
2022-07-28T23:04:10.306Z,64.04
2022-07-28T23:06:37.576Z,63.72
2022-07-28T23:09:05.770Z,63.59
2022-07-28T23:11:33.115Z,63.30
2022-07-28T23:14:00.422Z,63.14
2022-07-28T23:16:27.685Z,63.27
2022-07-28T23:18:55.492Z,63.40
2022-07-28T23:21:23.166Z,63.18
2022-07-28T23:23:50.501Z,63.13
2022-07-28T23:26:17.803Z,63.63
2022-07-28T23:28:45.044Z,62.94
2022-07-28T23:31:12.343Z,62.89
2022-07-28T23:33:54.103Z,62.90
2022-07-28T23:36:26.781Z,62.73
2022-07-28T23:38:57.492Z,62.94
2022-07-28T23:41:25.214Z,63.10
2022-07-28T23:43:53.446Z,63.34
2022-07-28T23:46:21.111Z,63.40
2022-07-28T23:48:50.035Z,63.71
2022-07-28T23:51:17.637Z,63.44
2022-07-28T23:53:45.024Z,63.50
2022-07-28T23:56:14.358Z,63.35
2022-07-28T23:58:42.340Z,63.64
